createdAt,value
2019-02-07T00:00:14.614Z,30.47
2019-02-07T00:02:50.657Z,29.30
2019-02-07T00:05:22.403Z,29.77
2019-02-07T00:07:53.891Z,27.80
2019-02-07T00:10:25.399Z,30.57
2019-02-07T00:12:58.806Z,31.30
2019-02-07T00:15:30.482Z,30.57
2019-02-07T00:18:01.966Z,30.13
2019-02-07T00:20:33.433Z,31.00
2019-02-07T00:23:05.018Z,29.07
2019-02-07T00:25:37.040Z,28.10
2019-02-07T00:28:10.987Z,26.30
2019-02-07T00:30:42.457Z,25.60
2019-02-07T00:33:13.889Z,22.30
2019-02-07T00:35:46.270Z,22.73
2019-02-07T00:38:18.729Z,21.23
2019-02-07T00:40:50.205Z,22.83
2019-02-07T00:43:23.156Z,21.83
2019-02-07T00:45:54.853Z,20.27
2019-02-07T00:48:28.386Z,21.47
2019-02-07T00:50:59.834Z,21.73
2019-02-07T00:53:31.235Z,21.43
2019-02-07T00:56:02.718Z,20.00
2019-02-07T00:58:34.269Z,21.57
2019-02-07T01:01:05.928Z,20.40
2019-02-07T01:03:37.675Z,19.70
2019-02-07T01:06:09.646Z,21.50
2019-02-07T01:08:41.159Z,22.80
2019-02-07T01:11:14.334Z,20.90
2019-02-07T01:13:46.403Z,22.83
2019-02-07T01:16:19.353Z,21.20
2019-02-07T01:18:50.888Z,23.10
2019-02-07T01:21:22.342Z,25.30
2019-02-07T01:23:54.937Z,24.33
2019-02-07T01:26:26.674Z,22.93
2019-02-07T01:28:58.176Z,22.83
2019-02-07T01:31:29.613Z,24.77
2019-02-07T01:34:02.665Z,25.23
2019-02-07T01:36:34.142Z,27.10
2019-02-07T01:39:09.327Z,25.10
2019-02-07T01:41:40.833Z,26.63
2019-02-07T01:44:13.873Z,25.17
2019-02-07T01:46:47.106Z,27.10
2019-02-07T01:49:18.595Z,24.70
2019-02-07T01:51:51.939Z,28.23
2019-02-07T01:54:23.441Z,26.03
2019-02-07T01:56:55.375Z,26.37
2019-02-07T01:59:26.826Z,29.47
2019-02-07T02:01:58.330Z,25.70
2019-02-07T02:04:29.892Z,26.50
2019-02-07T02:07:01.368Z,27.13
2019-02-07T02:09:32.866Z,26.53
2019-02-07T02:12:04.888Z,27.83
2019-02-07T02:14:37.462Z,28.70
2019-02-07T02:17:08.921Z,25.00
2019-02-07T02:19:40.434Z,26.77
2019-02-07T02:22:11.916Z,28.27
2019-02-07T02:24:45.222Z,25.63
2019-02-07T02:27:16.572Z,27.67
2019-02-07T02:29:48.095Z,29.80
2019-02-07T02:32:21.868Z,28.00
2019-02-07T02:34:53.355Z,26.63
2019-02-07T02:37:27.557Z,26.20
2019-02-07T02:40:01.470Z,24.77
2019-02-07T02:42:33.090Z,26.57
2019-02-07T02:45:05.527Z,29.30
2019-02-07T02:47:37.065Z,25.23
2019-02-07T02:50:11.590Z,27.23
2019-02-07T02:52:43.264Z,26.33
2019-02-07T02:55:21.878Z,25.67
2019-02-07T02:57:53.349Z,29.43
2019-02-07T03:00:33.502Z,25.83
2019-02-07T03:03:19.088Z,25.50
2019-02-07T03:06:04.718Z,23.50
2019-02-07T03:08:52.690Z,24.20
2019-02-07T03:11:48.418Z,23.30
2019-02-07T03:14:35.794Z,23.10
2019-02-07T03:17:14.366Z,24.77
2019-02-07T03:19:55.728Z,25.37
2019-02-07T03:22:46.374Z,24.07
2019-02-07T03:25:35.339Z,23.27
2019-02-07T03:28:24.552Z,25.43
2019-02-07T03:31:13.931Z,23.60
2019-02-07T03:34:10.235Z,23.40
2019-02-07T03:37:05.478Z,23.50
2019-02-07T03:39:43.588Z,22.67
2019-02-07T03:42:32.838Z,22.83
2019-02-07T03:45:28.048Z,22.60
2019-02-07T03:48:23.762Z,20.13
2019-02-07T03:51:14.566Z,22.90
2019-02-07T03:54:07.866Z,21.20
2019-02-07T03:57:05.804Z,22.90
2019-02-07T03:59:58.944Z,22.80
2019-02-07T04:02:55.362Z,20.60
2019-02-07T04:05:43.233Z,23.10
2019-02-07T04:08:32.535Z,22.07
2019-02-07T04:11:24.008Z,19.17
2019-02-07T04:14:26.520Z,21.60
2019-02-07T04:17:10.767Z,20.67
2019-02-07T04:20:01.403Z,21.30
2019-02-07T04:22:43.732Z,21.83
2019-02-07T04:25:43.579Z,21.03
2019-02-07T04:28:40.098Z,19.77
2019-02-07T04:31:26.905Z,21.57
2019-02-07T04:34:15.953Z,21.97
2019-02-07T04:37:02.895Z,24.03
2019-02-07T04:39:51.249Z,23.07
2019-02-07T04:42:56.618Z,22.53
2019-02-07T04:45:45.619Z,21.83
2019-02-07T04:48:30.717Z,22.13
2019-02-07T04:51:41.242Z,20.47
2019-02-07T04:54:31.966Z,21.53
2019-02-07T04:57:22.387Z,19.53
2019-02-07T05:00:16.171Z,18.67
2019-02-07T05:03:06.927Z,20.43
2019-02-07T05:06:15.941Z,20.40
2019-02-07T05:09:14.440Z,20.00
2019-02-07T05:12:16.759Z,21.60
2019-02-07T05:14:56.159Z,20.57
2019-02-07T05:17:55.655Z,20.33
2019-02-07T05:20:48.773Z,22.10
2019-02-07T05:23:41.997Z,19.70
2019-02-07T05:26:31.822Z,18.40
2019-02-07T05:29:28.181Z,20.50
2019-02-07T05:32:23.933Z,20.40
2019-02-07T05:35:14.109Z,21.27
2019-02-07T05:37:55.615Z,19.77
2019-02-07T05:41:04.093Z,24.23
2019-02-07T05:43:48.185Z,19.17
2019-02-07T05:46:50.777Z,20.83
2019-02-07T05:49:25.867Z,22.07
2019-02-07T05:52:31.014Z,21.23
2019-02-07T05:55:33.651Z,21.10
2019-02-07T05:58:19.071Z,20.20
2019-02-07T06:01:09.694Z,20.20
2019-02-07T06:03:56.995Z,19.20
2019-02-07T06:06:40.560Z,18.77
2019-02-07T06:09:30.668Z,22.80
2019-02-07T06:12:19.885Z,19.97
2019-02-07T06:15:08.957Z,21.60
2019-02-07T06:18:00.381Z,21.40
2019-02-07T06:20:58.954Z,19.63
2019-02-07T06:23:58.379Z,19.73
2019-02-07T06:26:47.611Z,22.00
2019-02-07T06:29:36.757Z,21.53
2019-02-07T06:32:17.565Z,21.43
2019-02-07T06:35:06.232Z,23.20
2019-02-07T06:37:55.986Z,21.40
2019-02-07T06:40:46.792Z,23.77
2019-02-07T06:43:43.436Z,23.13
2019-02-07T06:46:32.360Z,23.47
2019-02-07T06:49:21.775Z,21.30
2019-02-07T06:52:10.048Z,21.43
2019-02-07T06:54:52.315Z,22.43
2019-02-07T06:57:54.747Z,21.50
2019-02-07T07:00:47.068Z,21.70
2019-02-07T07:03:26.153Z,20.87
2019-02-07T07:06:22.581Z,20.30
2019-02-07T07:09:13.039Z,20.30
2019-02-07T07:12:03.351Z,20.83
2019-02-07T07:14:52.427Z,23.50
2019-02-07T07:17:51.752Z,20.03
2019-02-07T07:20:39.679Z,21.73
2019-02-07T07:23:35.990Z,19.93
2019-02-07T07:26:41.513Z,19.47
2019-02-07T07:29:47.150Z,18.77
2019-02-07T07:32:43.136Z,18.70
2019-02-07T07:35:32.339Z,18.83
2019-02-07T07:38:17.774Z,19.87
2019-02-07T07:41:11.045Z,19.80
2019-02-07T07:44:10.742Z,21.37
2019-02-07T07:47:01.018Z,20.10
2019-02-07T07:49:58.506Z,19.80
2019-02-07T07:52:51.852Z,18.83
2019-02-07T07:55:36.650Z,19.77
2019-02-07T07:58:26.113Z,20.13
2019-02-07T08:01:13.888Z,18.77
2019-02-07T08:03:54.116Z,19.70
2019-02-07T08:06:32.752Z,19.57
2019-02-07T08:09:38.263Z,18.77
2019-02-07T08:12:17.521Z,18.90
2019-02-07T08:15:07.882Z,19.13
2019-02-07T08:18:00.953Z,19.40
2019-02-07T08:20:42.438Z,20.80
2019-02-07T08:23:48.114Z,20.00
2019-02-07T08:26:42.298Z,20.60
2019-02-07T08:29:44.752Z,21.43
2019-02-07T08:32:34.351Z,20.17
2019-02-07T08:35:24.052Z,20.90
2019-02-07T08:38:08.377Z,21.43
2019-02-07T08:41:07.149Z,19.30
2019-02-07T08:44:06.734Z,19.53
2019-02-07T08:46:57.868Z,18.97
2019-02-07T08:49:48.576Z,20.40
2019-02-07T08:52:37.632Z,21.27
2019-02-07T08:55:34.976Z,18.50
2019-02-07T08:58:19.359Z,20.63
2019-02-07T09:01:15.590Z,19.70
2019-02-07T09:03:53.986Z,19.37
2019-02-07T09:06:44.388Z,19.03
2019-02-07T09:09:33.730Z,19.50
2019-02-07T09:12:21.922Z,19.43
2019-02-07T09:15:15.660Z,20.47
2019-02-07T09:18:16.248Z,20.83
2019-02-07T09:21:05.533Z,20.97
2019-02-07T09:23:54.822Z,21.80
2019-02-07T09:26:57.572Z,20.00
2019-02-07T09:30:00.327Z,21.40
2019-02-07T09:32:53.704Z,21.50
2019-02-07T09:35:46.112Z,21.07
2019-02-07T09:38:39.276Z,22.13
2019-02-07T09:41:45.235Z,22.87
2019-02-07T09:44:51.015Z,21.37
2019-02-07T09:47:46.160Z,23.53
2019-02-07T09:50:36.946Z,22.87
2019-02-07T09:53:30.166Z,18.37
2019-02-07T09:56:19.795Z,18.83
2019-02-07T09:59:10.137Z,20.00
2019-02-07T10:01:59.440Z,16.13
2019-02-07T10:04:53.249Z,17.57
2019-02-07T10:07:40.443Z,14.73
2019-02-07T10:10:29.984Z,16.33
2019-02-07T10:13:19.119Z,19.93
2019-02-07T10:16:08.310Z,25.23
2019-02-07T10:18:48.762Z,25.60
2019-02-07T10:21:42.016Z,26.20
2019-02-07T10:24:35.416Z,24.20
2019-02-07T10:27:29.956Z,25.40
2019-02-07T10:30:23.502Z,23.83
2019-02-07T10:33:07.876Z,22.30
2019-02-07T10:36:16.907Z,18.97
2019-02-07T10:38:56.844Z,18.40
2019-02-07T10:41:52.557Z,25.97
2019-02-07T10:44:41.575Z,19.40
2019-02-07T10:47:33.454Z,17.80
2019-02-07T10:50:23.916Z,17.80
2019-02-07T10:53:17.308Z,17.60
2019-02-07T10:56:08.090Z,17.60
2019-02-07T10:59:07.713Z,17.30
2019-02-07T11:01:58.480Z,17.63
2019-02-07T11:04:52.396Z,16.47
2019-02-07T11:07:42.814Z,16.20
2019-02-07T11:10:34.280Z,18.57
2019-02-07T11:13:23.871Z,16.87
2019-02-07T11:16:20.043Z,15.20
2019-02-07T11:19:20.969Z,15.60
2019-02-07T11:21:58.797Z,13.03
2019-02-07T11:24:47.892Z,8.60
2019-02-07T11:27:44.405Z,7.53
2019-02-07T11:30:55.252Z,7.13
2019-02-07T11:33:54.270Z,6.10
2019-02-07T11:36:53.993Z,4.97
2019-02-07T11:39:45.768Z,4.40
2019-02-07T11:42:48.332Z,4.30
2019-02-07T11:45:38.094Z,3.47
2019-02-07T11:48:34.364Z,4.40
2019-02-07T11:51:23.969Z,15.90
2019-02-07T11:54:17.410Z,5.40
2019-02-07T11:57:13.848Z,3.60
2019-02-07T12:00:03.143Z,5.13
2019-02-07T12:03:11.896Z,6.20
2019-02-07T12:06:01.467Z,4.80
2019-02-07T12:08:59.785Z,4.27
2019-02-07T12:11:50.140Z,4.67
2019-02-07T12:14:58.635Z,6.53
2019-02-07T12:17:49.121Z,6.30
2019-02-07T12:20:30.366Z,5.80
2019-02-07T12:23:11.356Z,6.83
2019-02-07T12:26:07.497Z,6.43
2019-02-07T12:28:52.649Z,8.03
2019-02-07T12:31:53.635Z,7.43
2019-02-07T12:34:44.705Z,7.50
2019-02-07T12:37:38.144Z,6.70
2019-02-07T12:40:28.727Z,7.27
2019-02-07T12:43:25.207Z,8.37
2019-02-07T12:46:20.387Z,8.80
2019-02-07T12:49:28.960Z,8.67
2019-02-07T12:52:12.911Z,8.93
2019-02-07T12:54:55.424Z,9.70
2019-02-07T12:57:52.063Z,9.30
2019-02-07T13:00:39.465Z,8.50
2019-02-07T13:03:45.093Z,7.53
2019-02-07T13:06:39.586Z,8.40
2019-02-07T13:09:47.857Z,7.10
2019-02-07T13:12:29.711Z,7.30
2019-02-07T13:15:20.732Z,9.30
2019-02-07T13:18:12.044Z,9.50
2019-02-07T13:20:51.054Z,9.00
2019-02-07T13:23:40.384Z,9.07
2019-02-07T13:26:36.591Z,9.57
2019-02-07T13:29:28.765Z,8.03
2019-02-07T13:32:18.373Z,9.50
2019-02-07T13:35:06.613Z,8.70
2019-02-07T13:37:56.990Z,8.20
2019-02-07T13:40:44.661Z,7.60
2019-02-07T13:43:33.664Z,7.70
2019-02-07T13:46:30.931Z,7.00
2019-02-07T13:49:21.267Z,6.57
2019-02-07T13:52:12.177Z,6.63
2019-02-07T13:55:06.934Z,6.83
2019-02-07T13:57:57.421Z,6.40
2019-02-07T14:00:59.943Z,8.83
2019-02-07T14:03:48.952Z,7.13
2019-02-07T14:06:45.213Z,6.90
2019-02-07T14:09:34.143Z,8.40
2019-02-07T14:12:33.826Z,11.77
2019-02-07T14:15:28.933Z,9.13
2019-02-07T14:18:19.385Z,9.13
2019-02-07T14:21:04.935Z,14.03
2019-02-07T14:24:13.707Z,14.43
2019-02-07T14:27:03.654Z,17.17
2019-02-07T14:30:00.027Z,17.17
2019-02-07T14:32:53.379Z,18.70
2019-02-07T14:35:46.846Z,20.40
2019-02-07T14:38:36.112Z,21.10
2019-02-07T14:41:32.860Z,19.67
2019-02-07T14:44:23.329Z,21.60
2019-02-07T14:46:58.030Z,23.27
2019-02-07T14:49:30.757Z,21.30
2019-02-07T14:52:02.189Z,23.37
2019-02-07T14:54:33.690Z,21.03
2019-02-07T14:57:05.898Z,22.77
2019-02-07T14:59:37.448Z,22.17
2019-02-07T15:02:09.022Z,23.27
2019-02-07T15:04:40.942Z,21.33
2019-02-07T15:07:12.565Z,20.30
2019-02-07T15:09:47.246Z,18.70
2019-02-07T15:12:18.811Z,15.60
2019-02-07T15:14:50.332Z,12.50
2019-02-07T15:17:21.791Z,7.97
2019-02-07T15:19:53.262Z,6.70
2019-02-07T15:22:24.791Z,5.03
2019-02-07T15:24:56.323Z,5.10
2019-02-07T15:27:28.893Z,5.60
2019-02-07T15:30:00.448Z,4.10
2019-02-07T15:32:31.909Z,4.50
2019-02-07T15:35:03.533Z,4.70
2019-02-07T15:37:35.077Z,4.60
2019-02-07T15:40:12.920Z,4.33
2019-02-07T15:42:44.535Z,4.03
2019-02-07T15:45:16.362Z,3.93
2019-02-07T15:47:47.840Z,6.90
2019-02-07T15:50:23.281Z,9.87
2019-02-07T15:52:58.936Z,5.07
2019-02-07T15:55:30.652Z,3.70
2019-02-07T15:58:02.627Z,3.53
2019-02-07T16:00:49.849Z,3.67
2019-02-07T16:03:40.261Z,4.10
2019-02-07T16:06:12.026Z,3.80
2019-02-07T16:08:43.478Z,3.23
2019-02-07T16:11:14.993Z,3.70
2019-02-07T16:13:46.475Z,3.20
2019-02-07T16:16:17.950Z,3.70
2019-02-07T16:18:51.546Z,3.00
2019-02-07T16:21:23.092Z,12.93
2019-02-07T16:23:54.976Z,12.50
2019-02-07T16:26:26.463Z,5.73
2019-02-07T16:28:58.000Z,4.40
2019-02-07T16:31:29.747Z,3.20
2019-02-07T16:34:01.242Z,3.20
2019-02-07T16:36:34.766Z,2.90
2019-02-07T16:39:11.079Z,3.30
2019-02-07T16:41:42.484Z,3.07
2019-02-07T16:44:15.111Z,5.93
2019-02-07T16:46:46.749Z,4.27
2019-02-07T16:49:20.948Z,3.30
2019-02-07T16:51:52.405Z,2.60
2019-02-07T16:54:23.871Z,2.03
2019-02-07T16:56:55.378Z,1.87
2019-02-07T16:59:26.832Z,3.70
2019-02-07T17:01:59.407Z,1.57
2019-02-07T17:04:30.824Z,1.57
2019-02-07T17:07:02.335Z,2.50
2019-02-07T17:09:41.134Z,1.80
2019-02-07T17:12:13.288Z,1.63
2019-02-07T17:14:44.800Z,2.07
2019-02-07T17:17:16.347Z,2.10
2019-02-07T17:19:47.944Z,1.70
2019-02-07T17:22:19.525Z,2.20
2019-02-07T17:24:51.216Z,1.90
2019-02-07T17:27:22.989Z,2.00
2019-02-07T17:29:54.378Z,1.60
2019-02-07T17:32:25.834Z,1.80
2019-02-07T17:34:57.268Z,1.60
2019-02-07T17:37:29.069Z,1.47
2019-02-07T17:40:00.610Z,1.40
2019-02-07T17:42:32.491Z,1.33
2019-02-07T17:45:04.020Z,1.50
2019-02-07T17:47:35.725Z,1.97
2019-02-07T17:50:13.208Z,1.90
2019-02-07T17:52:44.759Z,2.07
2019-02-07T17:55:17.862Z,2.20
2019-02-07T17:57:49.402Z,1.43
2019-02-07T18:00:59.167Z,1.80
2019-02-07T18:03:30.773Z,1.07
2019-02-07T18:06:02.226Z,1.37
2019-02-07T18:08:33.890Z,1.50
2019-02-07T18:11:07.974Z,2.03
2019-02-07T18:13:40.542Z,1.70
2019-02-07T18:16:12.071Z,1.70
2019-02-07T18:18:43.579Z,1.50
2019-02-07T18:21:16.491Z,1.50
2019-02-07T18:23:47.970Z,2.07
2019-02-07T18:26:19.446Z,1.30
2019-02-07T18:28:50.908Z,1.67
2019-02-07T18:31:22.397Z,1.20
2019-02-07T18:33:54.133Z,2.07
2019-02-07T18:36:25.600Z,4.60
2019-02-07T18:38:57.140Z,4.07
2019-02-07T18:41:28.565Z,3.00
2019-02-07T18:44:00.314Z,2.70
2019-02-07T18:46:31.998Z,2.60
2019-02-07T18:49:03.484Z,2.53
2019-02-07T18:51:44.912Z,3.10
2019-02-07T18:54:08.673Z,2.60
2019-02-07T18:56:40.135Z,2.43
2019-02-07T18:59:11.952Z,2.90
2019-02-07T19:01:43.357Z,2.50
2019-02-07T19:04:14.846Z,2.47
2019-02-07T19:06:46.279Z,3.03
2019-02-07T19:09:17.717Z,2.73
2019-02-07T19:11:49.297Z,2.63
2019-02-07T19:14:23.885Z,2.97
2019-02-07T19:16:55.371Z,2.03
2019-02-07T19:19:28.562Z,2.27
2019-02-07T19:22:00.007Z,1.90
2019-02-07T19:24:31.935Z,2.17
2019-02-07T19:27:03.458Z,2.50
2019-02-07T19:29:34.923Z,3.57
2019-02-07T19:32:06.385Z,4.00
2019-02-07T19:34:39.607Z,3.43
2019-02-07T19:37:11.354Z,3.07
2019-02-07T19:39:42.802Z,3.10
2019-02-07T19:42:14.258Z,3.23
2019-02-07T19:44:45.787Z,2.23
2019-02-07T19:47:17.325Z,2.30
2019-02-07T19:49:48.969Z,2.23
2019-02-07T19:52:20.498Z,3.03
2019-02-07T19:54:51.989Z,3.17
2019-02-07T19:57:23.539Z,3.37
2019-02-07T19:59:55.044Z,4.07
2019-02-07T20:02:26.491Z,4.00
2019-02-07T20:04:57.919Z,4.13
2019-02-07T20:07:29.393Z,4.10
2019-02-07T20:10:00.843Z,3.80
2019-02-07T20:12:33.985Z,3.90
2019-02-07T20:15:10.671Z,3.30
2019-02-07T20:17:42.232Z,2.67
2019-02-07T20:20:14.629Z,2.40
2019-02-07T20:22:46.294Z,1.90
2019-02-07T20:25:18.461Z,2.40
2019-02-07T20:27:50.204Z,2.20
2019-02-07T20:30:28.890Z,3.00
2019-02-07T20:33:01.983Z,4.43
2019-02-07T20:35:33.599Z,4.00
2019-02-07T20:38:06.008Z,3.73
2019-02-07T20:40:37.634Z,3.73
2019-02-07T20:43:09.695Z,2.60
2019-02-07T20:45:41.214Z,2.80
2019-02-07T20:48:12.790Z,2.50
2019-02-07T20:50:44.314Z,2.47
2019-02-07T20:53:17.838Z,2.20
2019-02-07T20:55:49.723Z,2.53
2019-02-07T20:58:21.246Z,2.30
2019-02-07T21:00:52.914Z,2.70
2019-02-07T21:03:24.427Z,2.00
2019-02-07T21:05:59.699Z,2.60
2019-02-07T21:08:30.837Z,2.97
2019-02-07T21:11:02.516Z,2.40
2019-02-07T21:13:38.637Z,2.30
2019-02-07T21:16:10.053Z,2.20
2019-02-07T21:18:43.465Z,2.70
2019-02-07T21:21:15.178Z,2.90
2019-02-07T21:23:46.783Z,2.27
2019-02-07T21:26:18.335Z,2.57
2019-02-07T21:28:49.862Z,3.13
2019-02-07T21:31:21.283Z,2.80
2019-02-07T21:33:52.767Z,2.77
2019-02-07T21:36:24.199Z,3.33
2019-02-07T21:38:55.893Z,4.37
2019-02-07T21:41:27.350Z,3.80
2019-02-07T21:43:58.804Z,2.60
2019-02-07T21:46:30.323Z,3.77
2019-02-07T21:49:02.260Z,3.60
2019-02-07T21:51:33.803Z,3.97
2019-02-07T21:54:05.660Z,3.17
2019-02-07T21:56:37.332Z,3.17
2019-02-07T21:59:09.664Z,3.80
2019-02-07T22:01:41.230Z,3.13
2019-02-07T22:04:13.019Z,3.87
2019-02-07T22:06:44.557Z,3.90
2019-02-07T22:09:17.005Z,3.57
2019-02-07T22:11:48.573Z,3.73
2019-02-07T22:14:20.034Z,3.77
2019-02-07T22:16:51.480Z,3.90
2019-02-07T22:19:22.977Z,3.90
2019-02-07T22:21:54.767Z,3.73
2019-02-07T22:24:26.653Z,3.70
2019-02-07T22:26:58.113Z,3.40
2019-02-07T22:29:29.629Z,4.13
2019-02-07T22:32:01.058Z,3.10
2019-02-07T22:34:32.692Z,3.40
2019-02-07T22:37:04.159Z,3.00
2019-02-07T22:39:35.609Z,3.47
2019-02-07T22:42:07.057Z,2.80
2019-02-07T22:44:38.626Z,2.20
2019-02-07T22:47:12.022Z,2.60
2019-02-07T22:49:43.505Z,2.17
2019-02-07T22:52:14.936Z,2.17
2019-02-07T22:54:49.108Z,2.07
2019-02-07T22:57:20.515Z,1.53
2019-02-07T22:59:51.974Z,1.87
2019-02-07T23:02:23.478Z,2.10
2019-02-07T23:04:55.021Z,2.03
2019-02-07T23:07:26.445Z,1.60
2019-02-07T23:09:57.841Z,1.63
2019-02-07T23:12:29.896Z,2.43
2019-02-07T23:15:01.359Z,2.53
2019-02-07T23:17:33.087Z,2.60
2019-02-07T23:20:06.179Z,2.63
2019-02-07T23:22:39.237Z,2.20
2019-02-07T23:25:11.724Z,2.57
2019-02-07T23:27:43.139Z,2.87
2019-02-07T23:30:15.249Z,2.80
2019-02-07T23:32:46.870Z,3.37
2019-02-07T23:35:18.456Z,3.50
2019-02-07T23:37:49.798Z,4.37
2019-02-07T23:40:22.034Z,4.47
2019-02-07T23:42:53.662Z,4.23
2019-02-07T23:45:25.343Z,4.20
2019-02-07T23:47:56.762Z,5.13
2019-02-07T23:50:28.206Z,4.57
2019-02-07T23:52:59.648Z,5.10
2019-02-07T23:55:31.106Z,5.70
2019-02-07T23:58:02.846Z,5.10
